sensor_id;sensor_type;location;lat;lon;timestamp;P1;durP1;ratioP1;P2;durP2;ratioP2
27543;SDS011;17996;51.056;3.656;2022-08-05T00:01:10;19.17;;;4.85;;
27543;SDS011;17996;51.056;3.656;2022-08-05T00:03:39;9.50;;;4.43;;
27543;SDS011;17996;51.056;3.656;2022-08-05T00:06:06;16.00;;;3.90;;
27543;SDS011;17996;51.056;3.656;2022-08-05T00:08:32;13.20;;;3.97;;
27543;SDS011;17996;51.056;3.656;2022-08-05T00:10:59;14.90;;;5.45;;
27543;SDS011;17996;51.056;3.656;2022-08-05T00:13:25;16.15;;;4.57;;
27543;SDS011;17996;51.056;3.656;2022-08-05T00:15:51;14.57;;;4.35;;
27543;SDS011;17996;51.056;3.656;2022-08-05T00:18:16;12.85;;;5.15;;
27543;SDS011;17996;51.056;3.656;2022-08-05T00:20:42;16.27;;;5.28;;
27543;SDS011;17996;51.056;3.656;2022-08-05T00:23:08;14.80;;;4.78;;
27543;SDS011;17996;51.056;3.656;2022-08-05T00:25:33;10.73;;;4.38;;
27543;SDS011;17996;51.056;3.656;2022-08-05T00:27:59;11.02;;;4.10;;
27543;SDS011;17996;51.056;3.656;2022-08-05T00:30:25;10.23;;;4.40;;
27543;SDS011;17996;51.056;3.656;2022-08-05T00:32:50;16.45;;;5.57;;
27543;SDS011;17996;51.056;3.656;2022-08-05T00:35:16;11.40;;;4.75;;
27543;SDS011;17996;51.056;3.656;2022-08-05T00:37:42;16.58;;;4.93;;
27543;SDS011;17996;51.056;3.656;2022-08-05T00:40:07;15.05;;;5.18;;
27543;SDS011;17996;51.056;3.656;2022-08-05T00:42:34;10.50;;;4.97;;
27543;SDS011;17996;51.056;3.656;2022-08-05T00:45:02;12.98;;;5.20;;
27543;SDS011;17996;51.056;3.656;2022-08-05T00:47:29;9.90;;;4.88;;
27543;SDS011;17996;51.056;3.656;2022-08-05T00:49:55;16.17;;;4.90;;
27543;SDS011;17996;51.056;3.656;2022-08-05T00:52:20;12.18;;;5.88;;
27543;SDS011;17996;51.056;3.656;2022-08-05T00:54:46;14.48;;;5.85;;
27543;SDS011;17996;51.056;3.656;2022-08-05T00:57:13;17.40;;;5.85;;
27543;SDS011;17996;51.056;3.656;2022-08-05T00:59:39;14.77;;;5.57;;
27543;SDS011;17996;51.056;3.656;2022-08-05T01:02:04;17.30;;;5.90;;
27543;SDS011;17996;51.056;3.656;2022-08-05T01:04:30;9.77;;;5.00;;
27543;SDS011;17996;51.056;3.656;2022-08-05T01:06:56;15.73;;;5.43;;
27543;SDS011;17996;51.056;3.656;2022-08-05T01:09:22;12.43;;;5.30;;
27543;SDS011;17996;51.056;3.656;2022-08-05T01:11:48;16.30;;;6.57;;
27543;SDS011;17996;51.056;3.656;2022-08-05T01:19:38;19.20;;;6.50;;
27543;SDS011;17996;51.056;3.656;2022-08-05T01:25:33;13.40;;;5.32;;
27543;SDS011;17996;51.056;3.656;2022-08-05T01:31:03;21.63;;;4.88;;
27543;SDS011;17996;51.056;3.656;2022-08-05T01:33:44;13.38;;;5.38;;
27543;SDS011;17996;51.056;3.656;2022-08-05T01:36:14;14.60;;;5.00;;
27543;SDS011;17996;51.056;3.656;2022-08-05T01:41:12;11.32;;;4.35;;
27543;SDS011;17996;51.056;3.656;2022-08-05T01:43:40;17.38;;;5.90;;
27543;SDS011;17996;51.056;3.656;2022-08-05T01:46:07;17.95;;;5.63;;
27543;SDS011;17996;51.056;3.656;2022-08-05T01:48:34;12.15;;;5.43;;
27543;SDS011;17996;51.056;3.656;2022-08-05T01:51:01;15.50;;;5.57;;
27543;SDS011;17996;51.056;3.656;2022-08-05T01:53:28;9.90;;;4.72;;
27543;SDS011;17996;51.056;3.656;2022-08-05T01:55:58;10.00;;;4.60;;
27543;SDS011;17996;51.056;3.656;2022-08-05T01:58:26;10.40;;;5.72;;
27543;SDS011;17996;51.056;3.656;2022-08-05T02:00:53;9.82;;;4.45;;
27543;SDS011;17996;51.056;3.656;2022-08-05T02:03:28;10.90;;;4.55;;
27543;SDS011;17996;51.056;3.656;2022-08-05T02:06:00;12.60;;;5.45;;
27543;SDS011;17996;51.056;3.656;2022-08-05T02:08:27;10.90;;;4.75;;
27543;SDS011;17996;51.056;3.656;2022-08-05T02:10:55;11.40;;;4.80;;
27543;SDS011;17996;51.056;3.656;2022-08-05T02:13:39;14.05;;;4.97;;
27543;SDS011;17996;51.056;3.656;2022-08-05T02:16:31;10.15;;;4.70;;
27543;SDS011;17996;51.056;3.656;2022-08-05T02:21:35;17.38;;;4.97;;
27543;SDS011;17996;51.056;3.656;2022-08-05T02:24:08;14.18;;;5.22;;
27543;SDS011;17996;51.056;3.656;2022-08-05T02:26:41;11.82;;;5.20;;
27543;SDS011;17996;51.056;3.656;2022-08-05T02:29:11;17.80;;;6.03;;
27543;SDS011;17996;51.056;3.656;2022-08-05T02:31:40;13.15;;;4.90;;
27543;SDS011;17996;51.056;3.656;2022-08-05T02:34:09;13.80;;;6.03;;
27543;SDS011;17996;51.056;3.656;2022-08-05T02:36:38;16.55;;;6.25;;
27543;SDS011;17996;51.056;3.656;2022-08-05T02:39:07;16.58;;;6.45;;
27543;SDS011;17996;51.056;3.656;2022-08-05T02:41:34;14.13;;;6.18;;
27543;SDS011;17996;51.056;3.656;2022-08-05T02:44:06;9.15;;;5.53;;
27543;SDS011;17996;51.056;3.656;2022-08-05T02:46:35;13.05;;;5.93;;
27543;SDS011;17996;51.056;3.656;2022-08-05T02:49:04;10.65;;;5.78;;
27543;SDS011;17996;51.056;3.656;2022-08-05T02:51:31;16.30;;;6.55;;
27543;SDS011;17996;51.056;3.656;2022-08-05T02:53:59;11.60;;;5.00;;
27543;SDS011;17996;51.056;3.656;2022-08-05T02:56:25;11.73;;;5.30;;
27543;SDS011;17996;51.056;3.656;2022-08-05T02:58:52;16.63;;;5.55;;
27543;SDS011;17996;51.056;3.656;2022-08-05T03:01:19;11.82;;;5.55;;
27543;SDS011;17996;51.056;3.656;2022-08-05T03:03:49;10.95;;;5.75;;
27543;SDS011;17996;51.056;3.656;2022-08-05T03:06:18;14.35;;;5.18;;
27543;SDS011;17996;51.056;3.656;2022-08-05T03:08:46;14.60;;;6.00;;
27543;SDS011;17996;51.056;3.656;2022-08-05T03:11:16;10.90;;;5.45;;
27543;SDS011;17996;51.056;3.656;2022-08-05T03:13:47;10.85;;;5.85;;
27543;SDS011;17996;51.056;3.656;2022-08-05T03:16:14;14.85;;;5.75;;
27543;SDS011;17996;51.056;3.656;2022-08-05T03:18:40;16.35;;;5.85;;
27543;SDS011;17996;51.056;3.656;2022-08-05T03:21:06;12.38;;;5.43;;
27543;SDS011;17996;51.056;3.656;2022-08-05T03:23:35;15.82;;;6.15;;
27543;SDS011;17996;51.056;3.656;2022-08-05T03:26:02;14.27;;;5.88;;
27543;SDS011;17996;51.056;3.656;2022-08-05T03:28:29;16.52;;;7.63;;
27543;SDS011;17996;51.056;3.656;2022-08-05T03:30:56;9.05;;;5.60;;
27543;SDS011;17996;51.056;3.656;2022-08-05T03:33:23;15.47;;;6.27;;
27543;SDS011;17996;51.056;3.656;2022-08-05T03:35:51;14.85;;;7.05;;
27543;SDS011;17996;51.056;3.656;2022-08-05T03:38:17;9.45;;;5.68;;
27543;SDS011;17996;51.056;3.656;2022-08-05T03:40:44;16.48;;;6.25;;
27543;SDS011;17996;51.056;3.656;2022-08-05T03:43:10;13.07;;;5.50;;
27543;SDS011;17996;51.056;3.656;2022-08-05T03:45:36;13.73;;;6.03;;
27543;SDS011;17996;51.056;3.656;2022-08-05T03:48:02;15.10;;;6.03;;
27543;SDS011;17996;51.056;3.656;2022-08-05T03:50:32;12.73;;;5.70;;
27543;SDS011;17996;51.056;3.656;2022-08-05T03:53:07;15.52;;;5.72;;
27543;SDS011;17996;51.056;3.656;2022-08-05T03:55:39;13.65;;;6.35;;
27543;SDS011;17996;51.056;3.656;2022-08-05T03:58:11;8.95;;;5.68;;
27543;SDS011;17996;51.056;3.656;2022-08-05T04:00:38;9.55;;;5.72;;
27543;SDS011;17996;51.056;3.656;2022-08-05T04:03:05;10.77;;;5.93;;
27543;SDS011;17996;51.056;3.656;2022-08-05T04:05:32;12.82;;;6.10;;
27543;SDS011;17996;51.056;3.656;2022-08-05T04:08:03;10.85;;;5.05;;
27543;SDS011;17996;51.056;3.656;2022-08-05T04:10:32;14.70;;;6.03;;
27543;SDS011;17996;51.056;3.656;2022-08-05T04:12:59;11.15;;;4.72;;
27543;SDS011;17996;51.056;3.656;2022-08-05T04:15:25;11.05;;;5.78;;
27543;SDS011;17996;51.056;3.656;2022-08-05T04:17:52;15.77;;;5.07;;
27543;SDS011;17996;51.056;3.656;2022-08-05T04:20:20;11.63;;;5.78;;
27543;SDS011;17996;51.056;3.656;2022-08-05T04:22:47;5.80;;;4.50;;
27543;SDS011;17996;51.056;3.656;2022-08-05T04:25:13;9.13;;;5.90;;
27543;SDS011;17996;51.056;3.656;2022-08-05T04:27:38;10.38;;;6.10;;
27543;SDS011;17996;51.056;3.656;2022-08-05T04:30:04;10.60;;;5.28;;
27543;SDS011;17996;51.056;3.656;2022-08-05T04:32:31;11.73;;;5.63;;
27543;SDS011;17996;51.056;3.656;2022-08-05T04:34:57;9.68;;;5.50;;
27543;SDS011;17996;51.056;3.656;2022-08-05T04:37:22;11.10;;;6.32;;
27543;SDS011;17996;51.056;3.656;2022-08-05T04:39:48;11.73;;;5.70;;
27543;SDS011;17996;51.056;3.656;2022-08-05T04:42:14;12.63;;;5.45;;
27543;SDS011;17996;51.056;3.656;2022-08-05T04:44:39;9.82;;;5.00;;
27543;SDS011;17996;51.056;3.656;2022-08-05T04:47:05;8.07;;;4.53;;
27543;SDS011;17996;51.056;3.656;2022-08-05T04:49:31;7.45;;;5.03;;
27543;SDS011;17996;51.056;3.656;2022-08-05T04:51:57;10.15;;;5.15;;
27543;SDS011;17996;51.056;3.656;2022-08-05T04:54:22;10.00;;;5.13;;
27543;SDS011;17996;51.056;3.656;2022-08-05T04:56:54;10.23;;;5.55;;
27543;SDS011;17996;51.056;3.656;2022-08-05T04:59:20;11.02;;;5.78;;
27543;SDS011;17996;51.056;3.656;2022-08-05T05:01:49;14.25;;;5.40;;
27543;SDS011;17996;51.056;3.656;2022-08-05T05:04:15;9.82;;;5.47;;
27543;SDS011;17996;51.056;3.656;2022-08-05T05:06:41;14.40;;;6.38;;
27543;SDS011;17996;51.056;3.656;2022-08-05T05:09:09;10.02;;;5.25;;
27543;SDS011;17996;51.056;3.656;2022-08-05T05:11:35;6.28;;;4.72;;
27543;SDS011;17996;51.056;3.656;2022-08-05T05:14:01;15.48;;;5.43;;
27543;SDS011;17996;51.056;3.656;2022-08-05T05:16:27;10.38;;;4.90;;
27543;SDS011;17996;51.056;3.656;2022-08-05T05:18:53;11.73;;;5.80;;
27543;SDS011;17996;51.056;3.656;2022-08-05T05:21:19;10.48;;;5.55;;
27543;SDS011;17996;51.056;3.656;2022-08-05T05:23:44;11.75;;;5.47;;
27543;SDS011;17996;51.056;3.656;2022-08-05T05:26:10;8.80;;;4.88;;
27543;SDS011;17996;51.056;3.656;2022-08-05T05:28:36;8.63;;;5.53;;
27543;SDS011;17996;51.056;3.656;2022-08-05T05:31:01;12.15;;;5.15;;
27543;SDS011;17996;51.056;3.656;2022-08-05T05:33:27;9.65;;;6.20;;
27543;SDS011;17996;51.056;3.656;2022-08-05T05:35:52;9.77;;;5.20;;
27543;SDS011;17996;51.056;3.656;2022-08-05T05:38:19;14.95;;;5.85;;
27543;SDS011;17996;51.056;3.656;2022-08-05T05:40:45;11.32;;;6.22;;
27543;SDS011;17996;51.056;3.656;2022-08-05T05:43:10;10.60;;;5.47;;
27543;SDS011;17996;51.056;3.656;2022-08-05T05:45:36;10.65;;;4.47;;
27543;SDS011;17996;51.056;3.656;2022-08-05T05:48:02;11.77;;;4.97;;
27543;SDS011;17996;51.056;3.656;2022-08-05T05:50:31;10.35;;;6.22;;
27543;SDS011;17996;51.056;3.656;2022-08-05T05:52:57;14.70;;;6.35;;
27543;SDS011;17996;51.056;3.656;2022-08-05T05:55:23;12.75;;;6.20;;
27543;SDS011;17996;51.056;3.656;2022-08-05T05:57:48;9.68;;;6.00;;
27543;SDS011;17996;51.056;3.656;2022-08-05T06:00:17;11.00;;;5.40;;
27543;SDS011;17996;51.056;3.656;2022-08-05T06:05:11;14.43;;;5.82;;
27543;SDS011;17996;51.056;3.656;2022-08-05T06:07:37;11.90;;;5.32;;
27543;SDS011;17996;51.056;3.656;2022-08-05T06:10:04;9.43;;;4.82;;
27543;SDS011;17996;51.056;3.656;2022-08-05T06:12:30;10.75;;;4.97;;
27543;SDS011;17996;51.056;3.656;2022-08-05T06:14:56;11.23;;;4.65;;
27543;SDS011;17996;51.056;3.656;2022-08-05T06:17:24;10.40;;;4.75;;
27543;SDS011;17996;51.056;3.656;2022-08-05T06:19:49;10.35;;;4.80;;
27543;SDS011;17996;51.056;3.656;2022-08-05T06:22:21;12.85;;;4.70;;
27543;SDS011;17996;51.056;3.656;2022-08-05T06:24:48;8.98;;;4.50;;
27543;SDS011;17996;51.056;3.656;2022-08-05T06:27:14;10.90;;;4.88;;
27543;SDS011;17996;51.056;3.656;2022-08-05T06:29:40;9.52;;;4.97;;
27543;SDS011;17996;51.056;3.656;2022-08-05T06:32:05;13.55;;;5.38;;
27543;SDS011;17996;51.056;3.656;2022-08-05T06:34:31;9.48;;;3.75;;
27543;SDS011;17996;51.056;3.656;2022-08-05T06:36:57;15.43;;;4.65;;
27543;SDS011;17996;51.056;3.656;2022-08-05T06:39:23;7.95;;;4.05;;
27543;SDS011;17996;51.056;3.656;2022-08-05T06:41:49;5.88;;;3.20;;
27543;SDS011;17996;51.056;3.656;2022-08-05T06:44:14;7.93;;;3.75;;
27543;SDS011;17996;51.056;3.656;2022-08-05T06:46:40;6.13;;;3.78;;
27543;SDS011;17996;51.056;3.656;2022-08-05T06:49:05;9.55;;;3.78;;
27543;SDS011;17996;51.056;3.656;2022-08-05T06:51:31;15.70;;;4.07;;
27543;SDS011;17996;51.056;3.656;2022-08-05T06:53:57;8.32;;;3.58;;
27543;SDS011;17996;51.056;3.656;2022-08-05T06:56:24;7.75;;;3.55;;
27543;SDS011;17996;51.056;3.656;2022-08-05T06:58:50;6.20;;;2.75;;
27543;SDS011;17996;51.056;3.656;2022-08-05T07:01:15;7.60;;;3.20;;
27543;SDS011;17996;51.056;3.656;2022-08-05T07:03:41;9.93;;;3.70;;
27543;SDS011;17996;51.056;3.656;2022-08-05T07:06:07;7.13;;;2.78;;
27543;SDS011;17996;51.056;3.656;2022-08-05T07:08:32;9.13;;;2.63;;
27543;SDS011;17996;51.056;3.656;2022-08-05T07:10:58;12.93;;;3.10;;
27543;SDS011;17996;51.056;3.656;2022-08-05T07:13:24;7.72;;;2.60;;
27543;SDS011;17996;51.056;3.656;2022-08-05T07:16:08;5.57;;;2.10;;
27543;SDS011;17996;51.056;3.656;2022-08-05T07:18:52;6.80;;;1.73;;
27543;SDS011;17996;51.056;3.656;2022-08-05T07:21:18;7.60;;;2.63;;
27543;SDS011;17996;51.056;3.656;2022-08-05T07:23:43;10.63;;;2.13;;
27543;SDS011;17996;51.056;3.656;2022-08-05T07:26:09;9.88;;;2.58;;
27543;SDS011;17996;51.056;3.656;2022-08-05T07:28:35;4.97;;;2.20;;
27543;SDS011;17996;51.056;3.656;2022-08-05T07:31:00;6.13;;;2.13;;
27543;SDS011;17996;51.056;3.656;2022-08-05T07:33:26;7.68;;;2.03;;
27543;SDS011;17996;51.056;3.656;2022-08-05T07:35:52;8.95;;;2.40;;
27543;SDS011;17996;51.056;3.656;2022-08-05T07:38:17;8.80;;;2.38;;
27543;SDS011;17996;51.056;3.656;2022-08-05T07:40:43;7.10;;;1.88;;
27543;SDS011;17996;51.056;3.656;2022-08-05T07:43:10;4.82;;;1.98;;
27543;SDS011;17996;51.056;3.656;2022-08-05T07:45:37;7.40;;;2.15;;
27543;SDS011;17996;51.056;3.656;2022-08-05T07:48:04;7.53;;;2.00;;
27543;SDS011;17996;51.056;3.656;2022-08-05T07:50:29;8.35;;;2.05;;
27543;SDS011;17996;51.056;3.656;2022-08-05T07:52:55;4.20;;;1.98;;
27543;SDS011;17996;51.056;3.656;2022-08-05T07:55:21;5.93;;;1.83;;
27543;SDS011;17996;51.056;3.656;2022-08-05T07:57:46;3.80;;;1.52;;
27543;SDS011;17996;51.056;3.656;2022-08-05T08:00:12;10.95;;;1.80;;
27543;SDS011;17996;51.056;3.656;2022-08-05T08:02:40;5.32;;;1.95;;
27543;SDS011;17996;51.056;3.656;2022-08-05T08:05:05;5.13;;;1.70;;
27543;SDS011;17996;51.056;3.656;2022-08-05T08:07:31;5.65;;;2.00;;
27543;SDS011;17996;51.056;3.656;2022-08-05T08:09:57;4.78;;;1.45;;
27543;SDS011;17996;51.056;3.656;2022-08-05T08:12:23;7.13;;;2.08;;
27543;SDS011;17996;51.056;3.656;2022-08-05T08:14:49;5.18;;;1.58;;
27543;SDS011;17996;51.056;3.656;2022-08-05T08:17:15;7.47;;;1.80;;
27543;SDS011;17996;51.056;3.656;2022-08-05T08:19:41;3.42;;;1.30;;
27543;SDS011;17996;51.056;3.656;2022-08-05T08:22:08;7.57;;;1.88;;
27543;SDS011;17996;51.056;3.656;2022-08-05T08:24:34;7.18;;;1.70;;
27543;SDS011;17996;51.056;3.656;2022-08-05T08:27:01;5.43;;;1.60;;
27543;SDS011;17996;51.056;3.656;2022-08-05T08:29:27;4.88;;;1.60;;
27543;SDS011;17996;51.056;3.656;2022-08-05T08:31:53;6.00;;;2.03;;
27543;SDS011;17996;51.056;3.656;2022-08-05T08:34:19;9.55;;;2.50;;
27543;SDS011;17996;51.056;3.656;2022-08-05T08:36:46;5.13;;;1.73;;
27543;SDS011;17996;51.056;3.656;2022-08-05T08:39:12;4.18;;;1.58;;
27543;SDS011;17996;51.056;3.656;2022-08-05T08:41:40;9.05;;;2.25;;
27543;SDS011;17996;51.056;3.656;2022-08-05T08:44:09;10.07;;;1.85;;
27543;SDS011;17996;51.056;3.656;2022-08-05T08:46:36;5.20;;;1.83;;
27543;SDS011;17996;51.056;3.656;2022-08-05T08:49:03;6.40;;;1.52;;
27543;SDS011;17996;51.056;3.656;2022-08-05T08:51:30;4.47;;;1.42;;
27543;SDS011;17996;51.056;3.656;2022-08-05T08:53:57;3.78;;;1.20;;
27543;SDS011;17996;51.056;3.656;2022-08-05T08:56:23;8.48;;;1.20;;
27543;SDS011;17996;51.056;3.656;2022-08-05T08:58:49;4.03;;;1.20;;
27543;SDS011;17996;51.056;3.656;2022-08-05T09:01:16;10.40;;;1.27;;
27543;SDS011;17996;51.056;3.656;2022-08-05T09:03:43;3.53;;;1.00;;
27543;SDS011;17996;51.056;3.656;2022-08-05T09:06:11;5.05;;;1.10;;
27543;SDS011;17996;51.056;3.656;2022-08-05T09:08:37;5.15;;;1.48;;
27543;SDS011;17996;51.056;3.656;2022-08-05T09:11:02;4.75;;;0.95;;
27543;SDS011;17996;51.056;3.656;2022-08-05T09:13:28;6.40;;;1.13;;
27543;SDS011;17996;51.056;3.656;2022-08-05T09:15:53;5.30;;;1.20;;
27543;SDS011;17996;51.056;3.656;2022-08-05T09:18:19;5.03;;;1.27;;
27543;SDS011;17996;51.056;3.656;2022-08-05T09:20:45;4.70;;;1.30;;
27543;SDS011;17996;51.056;3.656;2022-08-05T09:23:11;4.60;;;1.40;;
27543;SDS011;17996;51.056;3.656;2022-08-05T09:25:38;6.43;;;1.17;;
27543;SDS011;17996;51.056;3.656;2022-08-05T09:30:36;5.00;;;1.40;;
27543;SDS011;17996;51.056;3.656;2022-08-05T09:33:03;8.23;;;0.98;;
27543;SDS011;17996;51.056;3.656;2022-08-05T09:35:28;6.20;;;1.35;;
27543;SDS011;17996;51.056;3.656;2022-08-05T09:37:55;4.72;;;1.52;;
27543;SDS011;17996;51.056;3.656;2022-08-05T09:40:30;3.95;;;1.30;;
27543;SDS011;17996;51.056;3.656;2022-08-05T09:42:57;3.50;;;1.20;;
27543;SDS011;17996;51.056;3.656;2022-08-05T09:45:33;7.07;;;1.20;;
27543;SDS011;17996;51.056;3.656;2022-08-05T09:48:19;7.88;;;1.38;;
27543;SDS011;17996;51.056;3.656;2022-08-05T09:50:59;8.80;;;1.35;;
27543;SDS011;17996;51.056;3.656;2022-08-05T09:53:26;7.85;;;1.55;;
27543;SDS011;17996;51.056;3.656;2022-08-05T09:55:56;9.48;;;1.20;;
27543;SDS011;17996;51.056;3.656;2022-08-05T09:58:24;3.95;;;1.02;;
27543;SDS011;17996;51.056;3.656;2022-08-05T10:01:10;4.03;;;1.02;;
27543;SDS011;17996;51.056;3.656;2022-08-05T10:03:38;6.45;;;1.00;;
27543;SDS011;17996;51.056;3.656;2022-08-05T10:06:07;11.13;;;1.35;;
27543;SDS011;17996;51.056;3.656;2022-08-05T10:08:34;3.50;;;1.05;;
27543;SDS011;17996;51.056;3.656;2022-08-05T10:11:04;3.95;;;1.15;;
27543;SDS011;17996;51.056;3.656;2022-08-05T10:13:37;5.93;;;1.25;;
27543;SDS011;17996;51.056;3.656;2022-08-05T10:16:04;6.57;;;1.23;;
27543;SDS011;17996;51.056;3.656;2022-08-05T10:18:31;2.33;;;1.00;;
27543;SDS011;17996;51.056;3.656;2022-08-05T10:20:59;4.38;;;0.98;;
27543;SDS011;17996;51.056;3.656;2022-08-05T10:23:31;6.07;;;0.98;;
27543;SDS011;17996;51.056;3.656;2022-08-05T10:25:59;3.60;;;1.20;;
27543;SDS011;17996;51.056;3.656;2022-08-05T10:28:29;3.20;;;0.93;;
27543;SDS011;17996;51.056;3.656;2022-08-05T10:30:56;4.68;;;0.90;;
27543;SDS011;17996;51.056;3.656;2022-08-05T10:33:24;6.03;;;1.10;;
27543;SDS011;17996;51.056;3.656;2022-08-05T10:35:54;5.38;;;1.25;;
27543;SDS011;17996;51.056;3.656;2022-08-05T10:38:21;4.68;;;1.25;;
27543;SDS011;17996;51.056;3.656;2022-08-05T10:45:58;8.68;;;1.42;;
27543;SDS011;17996;51.056;3.656;2022-08-05T10:48:30;4.70;;;1.10;;
27543;SDS011;17996;51.056;3.656;2022-08-05T10:51:07;9.38;;;1.38;;
27543;SDS011;17996;51.056;3.656;2022-08-05T10:53:36;5.43;;;0.93;;
27543;SDS011;17996;51.056;3.656;2022-08-05T10:56:04;1.40;;;0.73;;
27543;SDS011;17996;51.056;3.656;2022-08-05T10:58:46;10.02;;;1.83;;
27543;SDS011;17996;51.056;3.656;2022-08-05T11:01:13;6.13;;;0.90;;
27543;SDS011;17996;51.056;3.656;2022-08-05T11:03:58;2.22;;;0.90;;
27543;SDS011;17996;51.056;3.656;2022-08-05T11:06:25;4.22;;;0.93;;
27543;SDS011;17996;51.056;3.656;2022-08-05T11:09:10;2.25;;;0.82;;
27543;SDS011;17996;51.056;3.656;2022-08-05T11:11:37;6.70;;;0.98;;
27543;SDS011;17996;51.056;3.656;2022-08-05T11:14:03;10.93;;;1.50;;
27543;SDS011;17996;51.056;3.656;2022-08-05T11:16:29;1.67;;;0.75;;
27543;SDS011;17996;51.056;3.656;2022-08-05T11:21:50;5.20;;;0.82;;
27543;SDS011;17996;51.056;3.656;2022-08-05T11:24:18;3.72;;;1.00;;
27543;SDS011;17996;51.056;3.656;2022-08-05T11:26:45;3.10;;;0.80;;
27543;SDS011;17996;51.056;3.656;2022-08-05T11:29:34;6.38;;;0.90;;
27543;SDS011;17996;51.056;3.656;2022-08-05T11:34:51;2.35;;;0.75;;
27543;SDS011;17996;51.056;3.656;2022-08-05T11:43:24;2.35;;;0.82;;
27543;SDS011;17996;51.056;3.656;2022-08-05T11:45:50;3.10;;;1.13;;
27543;SDS011;17996;51.056;3.656;2022-08-05T11:48:15;1.77;;;0.63;;
27543;SDS011;17996;51.056;3.656;2022-08-05T11:50:41;2.88;;;0.63;;
27543;SDS011;17996;51.056;3.656;2022-08-05T11:53:07;1.50;;;0.75;;
27543;SDS011;17996;51.056;3.656;2022-08-05T11:55:33;2.00;;;0.80;;
27543;SDS011;17996;51.056;3.656;2022-08-05T11:57:59;8.15;;;1.20;;
27543;SDS011;17996;51.056;3.656;2022-08-05T12:00:25;2.40;;;1.10;;
27543;SDS011;17996;51.056;3.656;2022-08-05T12:02:55;6.43;;;0.93;;
27543;SDS011;17996;51.056;3.656;2022-08-05T12:05:27;3.05;;;1.15;;
27543;SDS011;17996;51.056;3.656;2022-08-05T12:07:56;1.67;;;0.70;;
27543;SDS011;17996;51.056;3.656;2022-08-05T12:10:24;4.43;;;0.70;;
27543;SDS011;17996;51.056;3.656;2022-08-05T12:15:20;6.38;;;1.23;;
27543;SDS011;17996;51.056;3.656;2022-08-05T12:17:46;3.90;;;0.80;;
27543;SDS011;17996;51.056;3.656;2022-08-05T12:20:12;4.03;;;1.00;;
27543;SDS011;17996;51.056;3.656;2022-08-05T12:22:38;1.27;;;0.82;;
27543;SDS011;17996;51.056;3.656;2022-08-05T12:25:04;4.78;;;1.10;;
27543;SDS011;17996;51.056;3.656;2022-08-05T12:27:31;5.82;;;0.90;;
27543;SDS011;17996;51.056;3.656;2022-08-05T12:30:01;3.08;;;0.90;;
27543;SDS011;17996;51.056;3.656;2022-08-05T12:32:42;2.05;;;0.70;;
27543;SDS011;17996;51.056;3.656;2022-08-05T12:35:10;4.50;;;0.63;;
27543;SDS011;17996;51.056;3.656;2022-08-05T12:37:39;6.68;;;0.95;;
27543;SDS011;17996;51.056;3.656;2022-08-05T12:40:08;1.92;;;0.60;;
27543;SDS011;17996;51.056;3.656;2022-08-05T12:45:02;3.42;;;0.75;;
27543;SDS011;17996;51.056;3.656;2022-08-05T12:47:30;2.58;;;0.60;;
27543;SDS011;17996;51.056;3.656;2022-08-05T12:49:56;4.53;;;0.80;;
27543;SDS011;17996;51.056;3.656;2022-08-05T12:52:23;3.58;;;0.82;;
27543;SDS011;17996;51.056;3.656;2022-08-05T12:54:48;4.28;;;0.77;;
27543;SDS011;17996;51.056;3.656;2022-08-05T12:57:15;10.45;;;1.20;;
27543;SDS011;17996;51.056;3.656;2022-08-05T12:59:49;6.88;;;1.13;;
27543;SDS011;17996;51.056;3.656;2022-08-05T13:02:21;3.15;;;1.08;;
27543;SDS011;17996;51.056;3.656;2022-08-05T13:04:51;4.65;;;0.77;;
27543;SDS011;17996;51.056;3.656;2022-08-05T13:07:20;2.78;;;1.05;;
27543;SDS011;17996;51.056;3.656;2022-08-05T13:09:51;5.78;;;0.90;;
27543;SDS011;17996;51.056;3.656;2022-08-05T13:12:20;3.00;;;0.70;;
27543;SDS011;17996;51.056;3.656;2022-08-05T13:14:48;4.63;;;0.80;;
27543;SDS011;17996;51.056;3.656;2022-08-05T13:17:19;1.98;;;0.80;;
27543;SDS011;17996;51.056;3.656;2022-08-05T13:22:35;2.15;;;0.70;;
27543;SDS011;17996;51.056;3.656;2022-08-05T13:25:03;2.15;;;0.80;;
27543;SDS011;17996;51.056;3.656;2022-08-05T13:29:59;5.43;;;0.65;;
27543;SDS011;17996;51.056;3.656;2022-08-05T13:32:25;5.10;;;1.00;;
27543;SDS011;17996;51.056;3.656;2022-08-05T13:34:51;6.57;;;1.15;;
27543;SDS011;17996;51.056;3.656;2022-08-05T13:37:18;5.07;;;0.80;;
27543;SDS011;17996;51.056;3.656;2022-08-05T13:39:48;6.60;;;0.68;;
27543;SDS011;17996;51.056;3.656;2022-08-05T13:42:20;6.38;;;0.88;;
27543;SDS011;17996;51.056;3.656;2022-08-05T13:44:49;3.90;;;1.45;;
27543;SDS011;17996;51.056;3.656;2022-08-05T13:47:16;7.30;;;0.82;;
27543;SDS011;17996;51.056;3.656;2022-08-05T13:49:41;15.60;;;1.63;;
27543;SDS011;17996;51.056;3.656;2022-08-05T13:52:11;1.38;;;0.60;;
27543;SDS011;17996;51.056;3.656;2022-08-05T13:54:37;4.05;;;0.65;;
27543;SDS011;17996;51.056;3.656;2022-08-05T13:57:03;1.67;;;0.80;;
27543;SDS011;17996;51.056;3.656;2022-08-05T13:59:29;1.83;;;0.70;;
27543;SDS011;17996;51.056;3.656;2022-08-05T14:01:56;3.90;;;1.02;;
27543;SDS011;17996;51.056;3.656;2022-08-05T14:04:22;6.72;;;1.05;;
27543;SDS011;17996;51.056;3.656;2022-08-05T14:07:06;9.18;;;1.83;;
27543;SDS011;17996;51.056;3.656;2022-08-05T14:09:33;7.20;;;1.40;;
27543;SDS011;17996;51.056;3.656;2022-08-05T14:11:59;7.95;;;1.02;;
27543;SDS011;17996;51.056;3.656;2022-08-05T14:14:24;2.95;;;0.70;;
27543;SDS011;17996;51.056;3.656;2022-08-05T14:16:50;5.63;;;1.20;;
27543;SDS011;17996;51.056;3.656;2022-08-05T14:19:16;8.55;;;1.10;;
27543;SDS011;17996;51.056;3.656;2022-08-05T14:21:42;3.90;;;1.10;;
27543;SDS011;17996;51.056;3.656;2022-08-05T14:24:08;3.22;;;0.85;;
27543;SDS011;17996;51.056;3.656;2022-08-05T14:26:38;3.63;;;0.90;;
27543;SDS011;17996;51.056;3.656;2022-08-05T14:29:03;9.13;;;1.38;;
27543;SDS011;17996;51.056;3.656;2022-08-05T14:31:30;5.32;;;0.80;;
27543;SDS011;17996;51.056;3.656;2022-08-05T14:33:56;5.53;;;1.35;;
27543;SDS011;17996;51.056;3.656;2022-08-05T14:36:22;9.38;;;1.45;;
27543;SDS011;17996;51.056;3.656;2022-08-05T14:38:48;6.00;;;1.60;;
27543;SDS011;17996;51.056;3.656;2022-08-05T14:41:14;6.82;;;0.93;;
27543;SDS011;17996;51.056;3.656;2022-08-05T14:43:40;6.40;;;1.40;;
27543;SDS011;17996;51.056;3.656;2022-08-05T14:46:06;3.80;;;0.85;;
27543;SDS011;17996;51.056;3.656;2022-08-05T14:48:31;6.45;;;1.35;;
27543;SDS011;17996;51.056;3.656;2022-08-05T14:50:57;7.60;;;0.88;;
27543;SDS011;17996;51.056;3.656;2022-08-05T14:53:23;4.95;;;1.10;;
27543;SDS011;17996;51.056;3.656;2022-08-05T14:55:48;3.67;;;1.10;;
27543;SDS011;17996;51.056;3.656;2022-08-05T14:58:14;5.75;;;1.42;;
27543;SDS011;17996;51.056;3.656;2022-08-05T15:00:40;7.45;;;1.55;;
27543;SDS011;17996;51.056;3.656;2022-08-05T15:03:06;11.60;;;1.60;;
27543;SDS011;17996;51.056;3.656;2022-08-05T15:05:33;5.53;;;1.17;;
27543;SDS011;17996;51.056;3.656;2022-08-05T15:08:00;3.22;;;1.00;;
27543;SDS011;17996;51.056;3.656;2022-08-05T15:10:26;6.40;;;1.23;;
27543;SDS011;17996;51.056;3.656;2022-08-05T15:12:52;4.22;;;1.30;;
27543;SDS011;17996;51.056;3.656;2022-08-05T15:15:19;7.40;;;1.17;;
27543;SDS011;17996;51.056;3.656;2022-08-05T15:17:45;2.40;;;0.90;;
27543;SDS011;17996;51.056;3.656;2022-08-05T15:20:11;6.93;;;1.15;;
27543;SDS011;17996;51.056;3.656;2022-08-05T15:22:37;12.60;;;1.80;;
27543;SDS011;17996;51.056;3.656;2022-08-05T15:25:04;6.05;;;1.42;;
27543;SDS011;17996;51.056;3.656;2022-08-05T15:27:30;9.70;;;1.88;;
27543;SDS011;17996;51.056;3.656;2022-08-05T15:29:56;9.02;;;1.40;;
27543;SDS011;17996;51.056;3.656;2022-08-05T15:32:25;6.60;;;1.27;;
27543;SDS011;17996;51.056;3.656;2022-08-05T15:37:16;5.78;;;1.05;;